createdAt,value
2019-05-28T00:00:08.868Z,10.20
2019-05-28T00:01:16.504Z,11.10
2019-05-28T00:02:23.335Z,7.27
2019-05-28T00:03:31.311Z,10.77
2019-05-28T00:04:38.123Z,10.03
2019-05-28T00:05:46.187Z,9.90
2019-05-28T00:06:53.007Z,12.33
2019-05-28T00:08:00.584Z,5.43
2019-05-28T00:09:09.815Z,8.93
2019-05-28T00:10:18.140Z,7.67
2019-05-28T00:11:25.262Z,7.20
2019-05-28T00:12:32.960Z,8.20
2019-05-28T00:13:40.142Z,9.80
2019-05-28T00:14:48.101Z,8.03
2019-05-28T00:15:55.417Z,12.37
2019-05-28T00:17:03.421Z,8.30
2019-05-28T00:18:10.267Z,8.07
2019-05-28T00:19:18.298Z,13.47
2019-05-28T00:20:25.326Z,9.70
2019-05-28T00:21:33.357Z,20.27
2019-05-28T00:22:40.721Z,8.47
2019-05-28T00:23:48.876Z,9.20
2019-05-28T00:24:55.666Z,11.13
2019-05-28T00:26:03.296Z,9.40
2019-05-28T00:27:10.549Z,8.03
2019-05-28T00:28:18.149Z,11.80
2019-05-28T00:29:25.264Z,12.27
2019-05-28T00:30:32.872Z,10.37
2019-05-28T00:31:39.705Z,11.07
2019-05-28T00:32:47.355Z,9.60
2019-05-28T00:33:54.489Z,14.20
2019-05-28T00:35:02.485Z,10.50
2019-05-28T00:36:09.788Z,9.83
2019-05-28T00:37:17.951Z,9.77
2019-05-28T00:38:25.251Z,10.27
2019-05-28T00:39:32.888Z,5.97
2019-05-28T00:40:40.016Z,9.77
2019-05-28T00:41:47.951Z,9.03
2019-05-28T00:42:54.933Z,9.40
2019-05-28T00:44:02.890Z,11.17
2019-05-28T00:45:10.789Z,10.17
2019-05-28T00:46:18.397Z,9.60
2019-05-28T00:47:25.204Z,10.73
2019-05-28T00:48:33.294Z,10.80
2019-05-28T00:49:40.462Z,9.67
2019-05-28T00:50:48.383Z,7.63
2019-05-28T00:51:55.189Z,10.33
2019-05-28T00:53:02.992Z,10.87
2019-05-28T00:54:09.808Z,12.73
2019-05-28T00:55:19.521Z,8.40
2019-05-28T00:56:27.025Z,15.50
2019-05-28T00:57:35.422Z,7.90
2019-05-28T00:58:42.632Z,8.73
2019-05-28T00:59:51.956Z,8.50
2019-05-28T01:00:59.237Z,10.23
2019-05-28T01:02:06.831Z,11.07
2019-05-28T01:03:13.639Z,10.40
2019-05-28T01:04:21.250Z,10.00
2019-05-28T01:05:28.060Z,8.40
2019-05-28T01:06:36.157Z,10.67
2019-05-28T01:07:42.990Z,8.83
2019-05-28T01:08:50.592Z,8.90
2019-05-28T01:09:57.393Z,7.90
2019-05-28T01:11:05.000Z,11.30
2019-05-28T01:12:12.161Z,11.50
2019-05-28T01:13:19.803Z,9.63
2019-05-28T01:14:26.649Z,7.87
2019-05-28T01:15:34.236Z,9.53
2019-05-28T01:16:41.112Z,8.43
2019-05-28T01:17:48.731Z,5.90
2019-05-28T01:18:55.580Z,12.73
2019-05-28T01:20:03.169Z,8.27
2019-05-28T01:21:09.983Z,10.73
2019-05-28T01:22:18.019Z,14.73
2019-05-28T01:23:25.296Z,13.20
2019-05-28T01:24:32.909Z,12.60
2019-05-28T01:25:39.796Z,9.40
2019-05-28T01:26:47.384Z,8.50
2019-05-28T01:27:54.481Z,7.30
2019-05-28T01:29:02.090Z,5.77
2019-05-28T01:30:09.450Z,7.73
2019-05-28T01:31:17.085Z,7.83
2019-05-28T01:32:24.291Z,10.10
2019-05-28T01:33:31.958Z,10.30
2019-05-28T01:34:39.159Z,12.70
2019-05-28T01:35:46.742Z,12.87
2019-05-28T01:36:53.925Z,10.40
2019-05-28T01:38:01.613Z,8.60
2019-05-28T01:39:09.616Z,10.77
2019-05-28T01:40:18.788Z,13.50
2019-05-28T01:41:27.151Z,12.30
2019-05-28T01:42:34.753Z,8.33
2019-05-28T01:43:41.572Z,10.43
2019-05-28T01:44:49.217Z,11.23
2019-05-28T01:45:56.716Z,7.70
2019-05-28T01:47:04.315Z,13.00
2019-05-28T01:48:11.240Z,13.23
2019-05-28T01:49:18.865Z,10.50
2019-05-28T01:50:25.721Z,10.33
2019-05-28T01:51:33.313Z,8.00
2019-05-28T01:52:40.499Z,9.70
2019-05-28T01:53:48.129Z,10.27
2019-05-28T01:54:55.266Z,9.80
2019-05-28T01:56:03.321Z,11.00
2019-05-28T01:57:10.503Z,7.97
2019-05-28T01:58:18.448Z,8.63
2019-05-28T01:59:25.246Z,13.30
2019-05-28T02:00:32.862Z,15.43
2019-05-28T02:01:39.668Z,11.73
2019-05-28T02:02:47.739Z,15.37
2019-05-28T02:03:55.067Z,9.40
2019-05-28T02:05:03.081Z,9.07
2019-05-28T02:06:09.888Z,13.00
2019-05-28T02:07:17.479Z,10.57
2019-05-28T02:08:24.413Z,6.57
2019-05-28T02:09:32.007Z,13.30
2019-05-28T02:10:38.834Z,7.43
2019-05-28T02:11:47.092Z,12.40
2019-05-28T02:12:53.974Z,10.10
2019-05-28T02:14:01.946Z,9.73
2019-05-28T02:15:10.295Z,7.07
2019-05-28T02:16:18.257Z,12.27
2019-05-28T02:17:25.069Z,8.97
2019-05-28T02:18:32.995Z,14.50
2019-05-28T02:19:39.830Z,8.30
2019-05-28T02:20:47.432Z,7.93
2019-05-28T02:21:54.237Z,10.67
2019-05-28T02:23:02.258Z,13.93
2019-05-28T02:24:09.069Z,10.13
2019-05-28T02:25:17.335Z,13.10
2019-05-28T02:26:24.113Z,8.53
2019-05-28T02:27:32.406Z,9.83
2019-05-28T02:28:39.202Z,7.83
2019-05-28T02:29:47.182Z,18.10
2019-05-28T02:30:54.365Z,6.83
2019-05-28T02:32:02.663Z,7.30
2019-05-28T02:33:09.497Z,6.80
2019-05-28T02:34:17.442Z,13.50
2019-05-28T02:35:24.708Z,12.30
2019-05-28T02:36:32.323Z,9.13
2019-05-28T02:37:39.116Z,9.53
2019-05-28T02:38:46.865Z,10.93
2019-05-28T02:39:53.652Z,9.63
2019-05-28T02:41:01.760Z,9.57
2019-05-28T02:42:08.772Z,8.70
2019-05-28T02:43:16.776Z,10.53
2019-05-28T02:44:23.776Z,9.93
2019-05-28T02:45:32.556Z,12.60
2019-05-28T02:46:39.707Z,14.03
2019-05-28T02:47:47.702Z,7.17
2019-05-28T02:48:54.520Z,12.53
2019-05-28T02:50:02.340Z,11.10
2019-05-28T02:51:09.149Z,18.70
2019-05-28T02:52:17.060Z,12.67
2019-05-28T02:53:23.954Z,9.13
2019-05-28T02:54:33.315Z,9.07
2019-05-28T02:55:42.144Z,15.87
2019-05-28T02:56:53.024Z,14.70
2019-05-28T02:58:00.381Z,16.73
2019-05-28T02:59:09.535Z,14.70
2019-05-28T03:00:18.834Z,22.20
2019-05-28T03:01:42.996Z,16.90
2019-05-28T03:02:39.367Z,18.63
2019-05-28T03:03:50.040Z,17.50
2019-05-28T03:05:01.510Z,13.90
2019-05-28T03:06:15.891Z,19.73
2019-05-28T03:07:23.495Z,16.93
2019-05-28T03:08:34.348Z,19.87
2019-05-28T03:09:46.210Z,10.30
2019-05-28T03:11:02.303Z,13.00
2019-05-28T03:12:02.451Z,12.23
2019-05-28T03:13:10.251Z,14.23
2019-05-28T03:14:17.502Z,13.30
2019-05-28T03:15:25.402Z,15.63
2019-05-28T03:16:36.051Z,16.40
2019-05-28T03:17:45.900Z,12.60
2019-05-28T03:18:56.051Z,13.70
2019-05-28T03:20:07.432Z,20.17
2019-05-28T03:21:16.884Z,11.50
2019-05-28T03:22:26.370Z,16.53
2019-05-28T03:23:36.402Z,17.47
2019-05-28T03:24:48.539Z,12.57
2019-05-28T03:25:55.502Z,13.97
2019-05-28T03:27:03.567Z,14.57
2019-05-28T03:28:10.365Z,17.30
2019-05-28T03:29:18.750Z,20.53
2019-05-28T03:30:25.554Z,16.60
2019-05-28T03:31:33.170Z,25.60
2019-05-28T03:32:40.087Z,14.33
2019-05-28T03:33:47.704Z,16.93
2019-05-28T03:34:54.818Z,16.00
2019-05-28T03:36:10.885Z,17.83
2019-05-28T03:37:19.613Z,13.87
2019-05-28T03:38:29.480Z,15.90
2019-05-28T03:39:39.925Z,14.10
2019-05-28T03:40:49.463Z,19.40
2019-05-28T03:41:57.255Z,14.03
2019-05-28T03:43:04.868Z,15.13
2019-05-28T03:44:11.942Z,14.23
2019-05-28T03:45:20.286Z,13.40
2019-05-28T03:46:27.421Z,13.07
2019-05-28T03:47:35.337Z,20.50
2019-05-28T03:48:42.152Z,15.87
2019-05-28T03:49:50.281Z,19.93
2019-05-28T03:50:57.109Z,8.30
2019-05-28T03:52:04.742Z,13.03
2019-05-28T03:53:11.937Z,10.33
2019-05-28T03:54:19.882Z,10.00
2019-05-28T03:55:27.105Z,14.80
2019-05-28T03:56:34.874Z,15.60
2019-05-28T03:57:42.054Z,12.77
2019-05-28T03:58:50.045Z,16.40
2019-05-28T03:59:58.002Z,17.70
2019-05-28T04:01:06.149Z,11.87
2019-05-28T04:02:23.022Z,14.77
2019-05-28T04:03:22.390Z,14.13
2019-05-28T04:04:29.180Z,15.77
2019-05-28T04:05:37.156Z,12.83
2019-05-28T04:06:44.351Z,11.33
2019-05-28T04:07:52.324Z,11.70
2019-05-28T04:08:59.525Z,19.70
2019-05-28T04:10:07.913Z,17.73
2019-05-28T04:11:15.007Z,13.00
2019-05-28T04:12:22.616Z,15.23
2019-05-28T04:13:29.470Z,14.60
2019-05-28T04:14:37.542Z,14.30
2019-05-28T04:15:44.350Z,10.77
2019-05-28T04:16:52.430Z,14.43
2019-05-28T04:17:59.640Z,12.97
2019-05-28T04:19:08.071Z,8.80
2019-05-28T04:20:14.975Z,8.23
2019-05-28T04:21:22.883Z,8.77
2019-05-28T04:22:29.731Z,16.03
2019-05-28T04:23:41.230Z,10.13
2019-05-28T04:24:45.924Z,13.73
2019-05-28T04:25:54.088Z,19.03
2019-05-28T04:27:00.917Z,13.87
2019-05-28T04:28:08.967Z,14.30
2019-05-28T04:29:16.203Z,13.40
2019-05-28T04:30:24.140Z,15.17
2019-05-28T04:31:30.986Z,16.53
2019-05-28T04:32:40.950Z,13.77
2019-05-28T04:33:47.542Z,12.00
2019-05-28T04:34:55.438Z,10.67
2019-05-28T04:36:03.132Z,16.63
2019-05-28T04:37:10.759Z,17.33
2019-05-28T04:38:17.993Z,24.63
2019-05-28T04:39:25.641Z,10.73
2019-05-28T04:40:32.862Z,11.07
2019-05-28T04:41:40.486Z,16.43
2019-05-28T04:42:47.654Z,7.60
2019-05-28T04:43:55.635Z,11.13
2019-05-28T04:45:02.497Z,10.27
2019-05-28T04:46:10.149Z,13.03
2019-05-28T04:47:16.974Z,21.97
2019-05-28T04:48:24.601Z,15.03
2019-05-28T04:49:31.404Z,8.73
2019-05-28T04:50:39.056Z,9.27
2019-05-28T04:51:45.892Z,11.13
2019-05-28T04:52:53.491Z,11.83
2019-05-28T04:54:00.303Z,10.10
2019-05-28T04:55:09.091Z,14.70
2019-05-28T04:56:16.147Z,12.20
2019-05-28T04:57:24.030Z,10.57
2019-05-28T04:58:31.233Z,10.33
2019-05-28T04:59:38.937Z,9.87
2019-05-28T05:00:46.198Z,8.70
2019-05-28T05:01:53.911Z,8.03
2019-05-28T05:03:02.729Z,7.63
2019-05-28T05:04:10.698Z,10.60
2019-05-28T05:05:18.016Z,7.70
2019-05-28T05:06:25.617Z,10.17
2019-05-28T05:07:32.428Z,9.20
2019-05-28T05:08:40.351Z,7.43
2019-05-28T05:09:47.176Z,11.50
2019-05-28T05:10:54.840Z,8.00
2019-05-28T05:12:01.651Z,8.87
2019-05-28T05:13:09.252Z,6.03
2019-05-28T05:14:16.134Z,8.87
2019-05-28T05:15:23.720Z,8.63
2019-05-28T05:16:30.674Z,8.37
2019-05-28T05:17:38.287Z,6.80
2019-05-28T05:18:45.124Z,6.33
2019-05-28T05:19:53.088Z,11.07
2019-05-28T05:20:59.977Z,3.90
2019-05-28T05:22:07.990Z,6.20
2019-05-28T05:23:14.798Z,7.60
2019-05-28T05:24:22.467Z,9.10
2019-05-28T05:25:29.311Z,5.30
2019-05-28T05:26:36.910Z,12.33
2019-05-28T05:27:44.183Z,12.13
2019-05-28T05:28:52.144Z,10.63
2019-05-28T05:29:59.249Z,12.33
2019-05-28T05:31:06.926Z,10.77
2019-05-28T05:32:13.795Z,6.17
2019-05-28T05:33:21.444Z,13.47
2019-05-28T05:34:28.605Z,8.33
2019-05-28T05:35:36.731Z,10.07
2019-05-28T05:36:43.536Z,14.17
2019-05-28T05:37:51.139Z,10.10
2019-05-28T05:38:57.977Z,5.20
2019-05-28T05:40:06.442Z,8.83
2019-05-28T05:41:13.295Z,6.80
2019-05-28T05:42:21.465Z,8.70
2019-05-28T05:43:28.429Z,6.80
2019-05-28T05:44:36.008Z,7.13
2019-05-28T05:45:43.256Z,9.07
2019-05-28T05:46:50.875Z,10.63
2019-05-28T05:47:57.731Z,7.43
2019-05-28T05:49:05.371Z,4.50
2019-05-28T05:50:12.718Z,4.57
2019-05-28T05:51:20.438Z,8.47
2019-05-28T05:52:27.288Z,12.67
2019-05-28T05:53:34.970Z,12.87
2019-05-28T05:54:41.828Z,12.07
2019-05-28T05:55:49.427Z,11.13
2019-05-28T05:56:56.233Z,8.83
2019-05-28T05:58:03.862Z,3.90
2019-05-28T05:59:10.728Z,5.63
2019-05-28T06:00:19.334Z,8.60
2019-05-28T06:01:26.149Z,7.33
2019-05-28T06:02:34.451Z,8.70
2019-05-28T06:03:42.241Z,5.20
2019-05-28T06:04:49.968Z,8.63
2019-05-28T06:05:56.774Z,11.17
2019-05-28T06:07:04.388Z,7.97
2019-05-28T06:08:11.591Z,7.03
2019-05-28T06:09:19.197Z,7.13
2019-05-28T06:10:26.434Z,9.67
2019-05-28T06:11:34.309Z,3.50
2019-05-28T06:12:41.437Z,5.03
2019-05-28T06:13:49.108Z,5.43
2019-05-28T06:14:55.935Z,8.83
2019-05-28T06:16:03.897Z,5.90
2019-05-28T06:17:10.740Z,6.43
2019-05-28T06:18:19.010Z,7.40
2019-05-28T06:19:26.256Z,6.63
2019-05-28T06:20:34.138Z,10.80
2019-05-28T06:21:41.337Z,5.50
2019-05-28T06:22:49.098Z,13.50
2019-05-28T06:23:55.883Z,9.40
2019-05-28T06:25:03.546Z,5.97
2019-05-28T06:26:10.777Z,6.60
2019-05-28T06:27:19.503Z,9.20
2019-05-28T06:28:26.517Z,6.90
2019-05-28T06:29:34.464Z,5.87
2019-05-28T06:30:41.655Z,6.83
2019-05-28T06:31:49.868Z,6.13
2019-05-28T06:32:57.046Z,6.03
2019-05-28T06:34:04.727Z,5.40
2019-05-28T06:35:11.753Z,13.93
2019-05-28T06:36:19.722Z,8.70
2019-05-28T06:37:26.753Z,8.07
2019-05-28T06:38:34.336Z,36.03
2019-05-28T06:39:41.161Z,10.10
2019-05-28T06:40:48.822Z,13.70
2019-05-28T06:41:56.017Z,6.83
2019-05-28T06:43:03.624Z,11.67
2019-05-28T06:44:10.787Z,7.60
2019-05-28T06:45:18.589Z,7.47
2019-05-28T06:46:25.779Z,8.10
2019-05-28T06:47:33.387Z,3.30
2019-05-28T06:48:40.515Z,6.30
2019-05-28T06:49:48.110Z,3.70
2019-05-28T06:50:54.899Z,4.40
2019-05-28T06:52:03.153Z,11.50
2019-05-28T06:53:10.007Z,6.17
2019-05-28T06:54:17.669Z,9.27
2019-05-28T06:55:24.475Z,8.63
2019-05-28T06:56:32.085Z,8.67
2019-05-28T06:57:38.912Z,5.63
2019-05-28T06:58:46.998Z,7.60
2019-05-28T06:59:53.837Z,5.97
2019-05-28T07:01:01.559Z,3.60
2019-05-28T07:02:08.920Z,12.90
2019-05-28T07:03:16.522Z,14.70
2019-05-28T07:04:32.249Z,6.67
2019-05-28T07:05:32.962Z,11.00
2019-05-28T07:06:39.756Z,6.13
2019-05-28T07:07:47.714Z,9.80
2019-05-28T07:08:54.788Z,9.60
2019-05-28T07:10:02.370Z,8.10
2019-05-28T07:11:09.875Z,6.07
2019-05-28T07:12:18.372Z,3.63
2019-05-28T07:13:25.784Z,5.83
2019-05-28T07:14:33.555Z,4.03
2019-05-28T07:15:40.375Z,10.13
2019-05-28T07:16:53.226Z,10.70
2019-05-28T07:17:59.494Z,3.40
2019-05-28T07:19:23.036Z,4.00
2019-05-28T07:20:15.355Z,11.63
2019-05-28T07:21:22.953Z,8.13
2019-05-28T07:22:29.763Z,15.07
2019-05-28T07:23:37.370Z,10.13
2019-05-28T07:24:44.229Z,10.27
2019-05-28T07:25:52.451Z,8.40
2019-05-28T07:26:59.257Z,9.40
2019-05-28T07:28:11.301Z,7.90
2019-05-28T07:29:15.840Z,14.50
2019-05-28T07:30:23.731Z,16.00
2019-05-28T07:31:30.914Z,6.63
2019-05-28T07:32:38.509Z,10.30
2019-05-28T07:33:45.509Z,9.70
2019-05-28T07:34:53.451Z,13.27
2019-05-28T07:36:00.251Z,12.93
2019-05-28T07:37:07.920Z,15.63
2019-05-28T07:38:14.770Z,8.87
2019-05-28T07:39:22.374Z,8.20
2019-05-28T07:40:32.037Z,15.43
2019-05-28T07:41:38.516Z,8.33
2019-05-28T07:42:45.413Z,10.57
2019-05-28T07:43:53.364Z,14.77
2019-05-28T07:45:00.160Z,10.23
2019-05-28T07:46:08.051Z,7.60
2019-05-28T07:47:14.875Z,12.37
2019-05-28T07:48:22.933Z,13.63
2019-05-28T07:49:30.055Z,15.90
2019-05-28T07:50:37.642Z,8.40
2019-05-28T07:51:44.781Z,12.23
2019-05-28T07:52:52.380Z,12.67
2019-05-28T07:53:59.518Z,12.37
2019-05-28T07:55:07.598Z,12.73
2019-05-28T07:56:14.560Z,13.37
2019-05-28T07:57:22.161Z,14.77
2019-05-28T07:58:28.958Z,13.07
2019-05-28T07:59:36.577Z,10.33
2019-05-28T08:00:44.113Z,10.37
2019-05-28T08:01:51.848Z,10.00
2019-05-28T08:02:59.041Z,16.60
2019-05-28T08:04:06.640Z,24.63
2019-05-28T08:05:17.113Z,18.00
2019-05-28T08:06:23.363Z,13.37
2019-05-28T08:07:30.521Z,15.13
2019-05-28T08:08:38.131Z,9.77
2019-05-28T08:09:44.974Z,13.17
2019-05-28T08:10:52.775Z,16.27
2019-05-28T08:11:59.634Z,22.97
2019-05-28T08:13:07.943Z,10.27
2019-05-28T08:14:15.151Z,16.00
2019-05-28T08:15:22.924Z,14.77
2019-05-28T08:16:29.742Z,11.43
2019-05-28T08:17:37.477Z,16.63
2019-05-28T08:18:44.550Z,10.47
2019-05-28T08:19:52.150Z,15.60
2019-05-28T08:20:59.556Z,16.97
2019-05-28T08:22:08.481Z,12.07
2019-05-28T08:23:15.264Z,13.70
2019-05-28T08:24:23.182Z,14.73
2019-05-28T08:25:46.137Z,20.23
2019-05-28T08:26:39.866Z,11.10
2019-05-28T08:27:46.721Z,12.20
2019-05-28T08:28:54.333Z,12.13
2019-05-28T08:30:01.792Z,14.03
2019-05-28T08:31:15.985Z,12.93
2019-05-28T08:32:18.300Z,11.07
2019-05-28T08:33:25.894Z,12.83
2019-05-28T08:34:33.096Z,19.40
2019-05-28T08:35:40.709Z,13.43
2019-05-28T08:37:04.432Z,7.83
2019-05-28T08:37:57.171Z,9.33
2019-05-28T08:39:05.620Z,12.13
2019-05-28T08:40:13.406Z,13.00
2019-05-28T08:41:20.269Z,13.03
2019-05-28T08:42:28.092Z,12.00
2019-05-28T08:43:35.070Z,12.40
2019-05-28T08:44:43.224Z,13.63
2019-05-28T08:45:50.047Z,8.73
2019-05-28T08:46:58.035Z,11.77
2019-05-28T08:48:04.850Z,13.10
2019-05-28T08:49:13.098Z,9.23
2019-05-28T08:50:34.075Z,15.23
2019-05-28T08:51:29.895Z,7.30
2019-05-28T08:52:37.107Z,13.13
2019-05-28T08:53:44.998Z,9.40
2019-05-28T08:54:52.034Z,9.93
2019-05-28T08:55:59.982Z,8.60
2019-05-28T08:57:07.159Z,13.40
2019-05-28T08:58:15.512Z,10.60
2019-05-28T08:59:22.408Z,9.43
2019-05-28T09:00:41.300Z,9.73
2019-05-28T09:01:48.173Z,7.10
2019-05-28T09:02:55.759Z,7.63
2019-05-28T09:04:02.574Z,7.80
2019-05-28T09:05:25.178Z,6.57
2019-05-28T09:06:23.232Z,9.60
2019-05-28T09:07:28.983Z,10.10
2019-05-28T09:08:39.718Z,7.13
2019-05-28T09:09:45.378Z,9.27
2019-05-28T09:10:52.212Z,13.23
2019-05-28T09:11:59.905Z,8.00
2019-05-28T09:13:07.383Z,9.20
2019-05-28T09:14:14.986Z,8.07
2019-05-28T09:15:21.959Z,7.80
2019-05-28T09:16:29.935Z,7.93
2019-05-28T09:17:36.742Z,7.50
2019-05-28T09:18:44.378Z,13.80
2019-05-28T09:19:51.203Z,6.93
2019-05-28T09:20:59.023Z,8.50
2019-05-28T09:22:06.010Z,8.07
2019-05-28T09:23:13.623Z,12.93
2019-05-28T09:24:20.437Z,10.53
2019-05-28T09:25:28.241Z,9.03
2019-05-28T09:26:35.364Z,8.60
2019-05-28T09:27:42.981Z,10.03
2019-05-28T09:28:49.911Z,10.20
2019-05-28T09:29:57.522Z,11.77
2019-05-28T09:31:04.471Z,11.30
2019-05-28T09:32:12.271Z,17.43
2019-05-28T09:33:19.078Z,12.43
2019-05-28T09:34:26.673Z,11.17
2019-05-28T09:35:43.882Z,12.90
2019-05-28T09:36:43.186Z,19.63
2019-05-28T09:37:50.335Z,15.07
2019-05-28T09:38:57.934Z,15.70
2019-05-28T09:40:05.068Z,13.83
2019-05-28T09:41:12.674Z,16.67
2019-05-28T09:42:20.301Z,10.83
2019-05-28T09:43:27.897Z,16.53
2019-05-28T09:44:35.000Z,12.70
2019-05-28T09:45:43.256Z,9.47
2019-05-28T09:46:50.130Z,15.87
2019-05-28T09:47:58.480Z,12.60
2019-05-28T09:49:05.298Z,12.40
2019-05-28T09:50:29.822Z,18.83
2019-05-28T09:51:23.695Z,12.87
2019-05-28T09:52:31.299Z,18.30
2019-05-28T09:53:38.164Z,18.20
2019-05-28T09:54:46.134Z,21.33
2019-05-28T09:55:52.937Z,17.50
2019-05-28T09:57:00.548Z,14.17
2019-05-28T09:58:07.624Z,18.80
2019-05-28T09:59:15.330Z,14.60
2019-05-28T10:00:23.579Z,14.87
2019-05-28T10:01:31.274Z,12.27
2019-05-28T10:02:38.260Z,12.87
2019-05-28T10:03:46.252Z,13.97
2019-05-28T10:04:53.202Z,19.43
2019-05-28T10:06:15.676Z,13.60
2019-05-28T10:07:09.414Z,16.10
2019-05-28T10:08:17.072Z,10.50
2019-05-28T10:09:23.901Z,15.23
2019-05-28T10:10:31.611Z,14.50
2019-05-28T10:11:38.743Z,17.67
2019-05-28T10:12:47.199Z,16.07
2019-05-28T10:13:53.998Z,12.30
2019-05-28T10:15:01.933Z,15.07
2019-05-28T10:16:09.225Z,12.77
2019-05-28T10:17:16.933Z,18.00
2019-05-28T10:18:24.102Z,16.27
2019-05-28T10:19:31.685Z,12.17
2019-05-28T10:20:38.478Z,11.83
2019-05-28T10:21:46.237Z,13.77
2019-05-28T10:22:53.161Z,14.40
2019-05-28T10:24:01.121Z,13.57
2019-05-28T10:25:08.754Z,15.60
2019-05-28T10:26:16.714Z,18.03
2019-05-28T10:27:23.549Z,17.33
2019-05-28T10:28:31.616Z,14.60
2019-05-28T10:29:38.732Z,15.53
2019-05-28T10:30:46.336Z,15.77
2019-05-28T10:31:53.343Z,14.50
2019-05-28T10:33:01.204Z,19.63
2019-05-28T10:34:08.410Z,17.50
2019-05-28T10:35:17.196Z,15.53
2019-05-28T10:36:34.936Z,19.10
2019-05-28T10:37:33.696Z,20.30
2019-05-28T10:38:40.579Z,13.43
2019-05-28T10:39:48.735Z,19.93
2019-05-28T10:40:55.531Z,15.87
2019-05-28T10:42:03.489Z,14.93
2019-05-28T10:43:10.679Z,21.90
2019-05-28T10:44:18.669Z,16.83
2019-05-28T10:45:26.277Z,19.20
2019-05-28T10:46:33.972Z,15.20
2019-05-28T10:47:40.824Z,19.60
2019-05-28T10:48:48.842Z,19.93
2019-05-28T10:49:55.667Z,20.40
2019-05-28T10:51:03.261Z,20.23
2019-05-28T10:52:10.412Z,17.00
2019-05-28T10:53:18.234Z,20.60
2019-05-28T10:54:25.120Z,21.53
2019-05-28T10:55:33.097Z,21.10
2019-05-28T10:56:39.968Z,25.20
2019-05-28T10:57:47.858Z,21.80
2019-05-28T10:58:54.703Z,15.50
2019-05-28T11:00:02.870Z,19.43
2019-05-28T11:01:10.160Z,14.47
2019-05-28T11:02:17.861Z,19.00
2019-05-28T11:03:25.252Z,16.37
2019-05-28T11:04:32.848Z,14.93
2019-05-28T11:05:39.667Z,18.90
2019-05-28T11:06:51.912Z,17.40
2019-05-28T11:07:56.225Z,14.43
2019-05-28T11:09:04.225Z,17.80
2019-05-28T11:10:23.603Z,13.03
2019-05-28T11:11:23.295Z,13.37
2019-05-28T11:12:30.139Z,12.73
2019-05-28T11:13:52.003Z,10.93
2019-05-28T11:14:46.843Z,11.63
2019-05-28T11:15:54.784Z,11.73
2019-05-28T11:17:01.576Z,11.53
2019-05-28T11:18:09.170Z,12.43
2019-05-28T11:19:16.332Z,9.73
2019-05-28T11:20:24.875Z,12.00
2019-05-28T11:21:31.866Z,11.40
2019-05-28T11:22:39.460Z,10.80
2019-05-28T11:23:47.060Z,8.40
2019-05-28T11:24:55.203Z,5.97
2019-05-28T11:26:02.381Z,5.93
2019-05-28T11:27:09.971Z,6.93
2019-05-28T11:28:16.782Z,7.17
2019-05-28T11:29:24.827Z,10.43
2019-05-28T11:30:32.029Z,8.13
2019-05-28T11:31:39.632Z,5.10
2019-05-28T11:32:46.744Z,8.10
2019-05-28T11:33:55.450Z,5.90
2019-05-28T11:35:02.891Z,4.70
2019-05-28T11:36:10.511Z,9.50
2019-05-28T11:37:17.410Z,5.70
2019-05-28T11:38:25.050Z,3.63
2019-05-28T11:39:31.857Z,5.53
2019-05-28T11:40:39.452Z,10.07
2019-05-28T11:41:46.263Z,6.73
2019-05-28T11:42:53.868Z,7.87
2019-05-28T11:44:00.835Z,5.50
2019-05-28T11:45:10.458Z,4.20
2019-05-28T11:46:17.338Z,9.10
2019-05-28T11:47:24.970Z,6.33
2019-05-28T11:48:32.237Z,6.50
2019-05-28T11:49:40.236Z,5.23
2019-05-28T11:50:47.916Z,3.03
2019-05-28T11:51:55.504Z,3.10
2019-05-28T11:53:02.430Z,3.70
2019-05-28T11:54:10.032Z,3.33
2019-05-28T11:55:18.525Z,7.47
2019-05-28T11:56:26.463Z,4.83
2019-05-28T11:57:33.675Z,3.77
2019-05-28T11:58:41.272Z,10.30
2019-05-28T11:59:48.085Z,5.50
2019-05-28T12:00:55.678Z,5.03
2019-05-28T12:02:05.067Z,4.27
2019-05-28T12:03:11.831Z,5.70
2019-05-28T12:04:18.661Z,5.40
2019-05-28T12:05:26.739Z,6.27
2019-05-28T12:06:38.069Z,6.30
2019-05-28T12:07:43.433Z,3.43
2019-05-28T12:08:50.788Z,3.57
2019-05-28T12:09:58.723Z,3.63
2019-05-28T12:11:05.928Z,4.23
2019-05-28T12:12:13.547Z,4.63
2019-05-28T12:13:20.395Z,8.67
2019-05-28T12:14:28.591Z,5.80
2019-05-28T12:15:35.380Z,4.70
2019-05-28T12:16:43.294Z,5.80
2019-05-28T12:17:50.608Z,4.23
2019-05-28T12:18:58.618Z,5.97
2019-05-28T12:20:06.877Z,4.63
2019-05-28T12:21:15.280Z,3.50
2019-05-28T12:22:22.153Z,4.53
2019-05-28T12:23:29.753Z,7.50
2019-05-28T12:24:36.702Z,9.93
2019-05-28T12:25:44.413Z,5.83
2019-05-28T12:26:51.304Z,4.90
2019-05-28T12:27:59.598Z,5.97
2019-05-28T12:29:07.141Z,7.17
2019-05-28T12:30:18.664Z,3.43
2019-05-28T12:31:26.403Z,5.77
2019-05-28T12:32:33.984Z,2.80
2019-05-28T12:33:41.267Z,4.03
2019-05-28T12:34:48.933Z,4.97
2019-05-28T12:35:56.404Z,5.67
2019-05-28T12:37:04.044Z,3.20
2019-05-28T12:38:10.860Z,4.10
2019-05-28T12:39:18.880Z,3.07
2019-05-28T12:40:26.089Z,2.47
2019-05-28T12:41:33.671Z,6.43
2019-05-28T12:42:40.498Z,3.00
2019-05-28T12:43:48.760Z,9.20
2019-05-28T12:45:09.073Z,6.53
2019-05-28T12:46:05.794Z,6.00
2019-05-28T12:47:14.790Z,3.13
2019-05-28T12:48:21.939Z,3.60
2019-05-28T12:49:28.749Z,6.53
2019-05-28T12:50:36.333Z,5.60
2019-05-28T12:51:43.419Z,7.70
2019-05-28T12:52:51.159Z,5.00
2019-05-28T12:53:58.511Z,3.77
2019-05-28T12:55:07.630Z,5.53
2019-05-28T12:56:14.437Z,5.17
2019-05-28T12:57:22.040Z,3.50
2019-05-28T12:58:41.563Z,5.70
2019-05-28T12:59:38.772Z,3.47
2019-05-28T13:00:45.993Z,4.10
2019-05-28T13:01:53.958Z,9.70
2019-05-28T13:03:00.879Z,8.13
2019-05-28T13:04:08.606Z,4.43
2019-05-28T13:05:18.397Z,6.77
2019-05-28T13:06:26.286Z,4.87
2019-05-28T13:07:33.371Z,4.87
2019-05-28T13:08:41.270Z,6.63
2019-05-28T13:09:49.194Z,3.00
2019-05-28T13:10:57.099Z,5.50
2019-05-28T13:12:04.600Z,5.27
2019-05-28T13:13:12.183Z,4.17
2019-05-28T13:14:18.999Z,3.40
2019-05-28T13:15:26.709Z,7.67
2019-05-28T13:16:33.908Z,3.53
2019-05-28T13:17:41.628Z,8.97
2019-05-28T13:18:48.573Z,4.50
2019-05-28T13:19:56.563Z,6.77
2019-05-28T13:21:04.147Z,5.93
2019-05-28T13:22:11.793Z,7.10
2019-05-28T13:23:18.678Z,5.00
2019-05-28T13:24:26.292Z,3.70
2019-05-28T13:25:33.786Z,5.50
2019-05-28T13:26:41.366Z,6.30
2019-05-28T13:27:48.166Z,9.63
2019-05-28T13:28:56.057Z,8.20
2019-05-28T13:30:03.399Z,6.57
2019-05-28T13:31:11.612Z,6.10
2019-05-28T13:32:18.457Z,3.47
2019-05-28T13:33:26.396Z,8.60
2019-05-28T13:34:33.797Z,9.20
2019-05-28T13:35:41.405Z,4.47
2019-05-28T13:36:50.302Z,8.37
2019-05-28T13:37:57.937Z,4.07
2019-05-28T13:39:06.277Z,4.27
2019-05-28T13:40:15.960Z,6.00
2019-05-28T13:41:33.928Z,5.00
2019-05-28T13:42:41.877Z,5.60
2019-05-28T13:43:48.845Z,6.00
2019-05-28T13:44:56.461Z,4.03
2019-05-28T13:46:03.629Z,3.60
2019-05-28T13:47:29.970Z,7.60
2019-05-28T13:48:20.283Z,4.93
2019-05-28T13:49:27.926Z,6.00
2019-05-28T13:50:35.115Z,10.83
2019-05-28T13:51:42.691Z,7.87
2019-05-28T13:52:49.699Z,5.90
2019-05-28T13:53:57.379Z,6.30
2019-05-28T13:55:04.664Z,5.50
2019-05-28T13:56:12.293Z,5.70
2019-05-28T13:57:19.592Z,4.13
2019-05-28T13:58:27.635Z,4.20
2019-05-28T13:59:34.809Z,10.20
2019-05-28T14:00:42.461Z,4.60
2019-05-28T14:01:49.274Z,5.70
2019-05-28T14:02:57.635Z,3.80
2019-05-28T14:04:04.678Z,6.90
2019-05-28T14:05:12.760Z,3.27
2019-05-28T14:06:19.643Z,8.80
2019-05-28T14:07:27.229Z,7.33
2019-05-28T14:08:45.725Z,4.53
2019-05-28T14:09:44.512Z,4.17
2019-05-28T14:10:51.717Z,9.87
2019-05-28T14:12:00.036Z,11.30
2019-05-28T14:13:07.084Z,7.83
2019-05-28T14:14:15.236Z,8.67
2019-05-28T14:15:23.963Z,4.47
2019-05-28T14:16:31.569Z,5.37
2019-05-28T14:17:38.361Z,6.53
2019-05-28T14:18:46.443Z,6.57
2019-05-28T14:19:53.331Z,6.50
2019-05-28T14:21:01.018Z,8.53
2019-05-28T14:22:08.014Z,5.73
2019-05-28T14:23:16.030Z,5.10
2019-05-28T14:24:22.826Z,6.37
2019-05-28T14:25:30.510Z,5.63
2019-05-28T14:26:37.318Z,3.00
2019-05-28T14:27:45.046Z,4.10
2019-05-28T14:28:53.824Z,3.93
2019-05-28T14:30:01.663Z,3.50
2019-05-28T14:31:08.778Z,3.63
2019-05-28T14:32:16.989Z,6.50
2019-05-28T14:33:23.941Z,4.07
2019-05-28T14:34:31.844Z,6.80
2019-05-28T14:35:38.698Z,3.20
2019-05-28T14:36:46.335Z,3.43
2019-05-28T14:37:53.202Z,4.47
2019-05-28T14:39:03.731Z,5.73
2019-05-28T14:40:12.115Z,8.00
2019-05-28T14:41:20.255Z,2.87
2019-05-28T14:42:27.049Z,4.80
2019-05-28T14:43:35.107Z,4.47
2019-05-28T14:44:43.417Z,7.73
2019-05-28T14:45:51.736Z,4.50